Terminal Aerodrome Forecast
Issued by NWS

Home | Current Version | Previous Version | Text Only | Print | Product List | Glossary On
Versions: 1 2 3 4 5 6 7 8 9 10 11 12 13 14 15 16 17 18 19 20 21 22 23 24
000
FTUS43 KMPX 020700 AAA
TAFRNH
TAF AMD
KRNH 020725Z 0207/0306 00000KT 2SM BR SCT007 OVC011
     FM020930 00000KT 1SM BR SCT003 OVC005
     FM021100 00000KT 1/4SM FG VV001
     FM021500 00000KT 3SM BR OVC007
     FM021700 00000KT 6SM BR OVC009
     FM022100 30006KT 6SM -RA SCT008 OVC012
     FM030400 29004KT P6SM SCT015 BKN150=

USA.gov is the U.S. government's official web portal to all federal, state and local government web resources and services.